Time;durP1;ratioP1;P1;durP2;ratioP2;P2;SDS_P1;SDS_P2;PMS_P1;PMS_P2;Temp;Humidity;BMP_temperature;BMP_pressure;BME280_temperature;BME280_humidity;BME280_pressure;Samples;Min_cycle;Max_cycle;Signal;HPM_P1;HPM_P2
2023/10/08 00:01:50;;;;;;;2.47;0.60;;;12.40;99.90;;;;;;2586099;54;20775;31
2023/10/08 00:04:30;;;;;;;0.80;0.30;;;12.30;99.90;;;;;;2586114;54;20854;31
2023/10/08 00:07:07;;;;;;;1.10;0.30;;;12.30;99.90;;;;;;2586239;54;20017;31
2023/10/08 00:09:46;;;;;;;1.47;0.50;;;12.30;99.90;;;;;;2604619;46;20030;31
2023/10/08 00:12:25;;;;;;;1.27;0.30;;;12.20;99.90;;;;;;2599083;46;20046;31
2023/10/08 00:15:09;;;;;;;1.73;0.35;;;12.20;99.90;;;;;;2604731;46;20998;31
2023/10/08 00:17:58;;;;;;;1.52;0.40;;;12.20;99.90;;;;;;2586073;54;20926;31
2023/10/08 00:20:54;;;;;;;1.50;0.40;;;12.20;99.90;;;;;;2585222;54;22382;31
2023/10/08 00:26:40;;;;;;;0.80;0.40;;;12.20;99.90;;;;;;2586027;54;20030;31
2023/10/08 00:29:21;;;;;;;0.77;0.30;;;12.20;99.90;;;;;;2586222;54;20045;31
2023/10/08 00:32:11;;;;;;;1.08;0.40;;;12.20;99.90;;;;;;2586244;54;20885;31
2023/10/08 00:38:14;;;;;;;4.20;0.40;;;12.10;99.90;;;;;;2585888;54;20086;31
2023/10/08 00:43:45;;;;;;;0.97;0.20;;;12.10;99.90;;;;;;2585632;54;20045;31
2023/10/08 00:46:42;;;;;;;2.30;0.35;;;12.10;99.90;;;;;;2585661;54;20814;31
2023/10/08 00:49:40;;;;;;;1.35;0.30;;;12.10;99.90;;;;;;2604370;46;20081;31
2023/10/08 00:58:08;;;;;;;1.17;0.30;;;12.10;99.90;;;;;;2585715;54;20243;31
2023/10/08 01:00:59;;;;;;;2.58;0.20;;;12.00;99.90;;;;;;2585791;54;20023;31
2023/10/08 01:03:49;;;;;;;1.27;0.13;;;12.00;99.90;;;;;;2585475;54;20022;31
2023/10/08 01:06:51;;;;;;;0.60;0.10;;;12.00;99.90;;;;;;2585049;54;20654;31
2023/10/08 01:09:37;;;;;;;0.85;0.40;;;12.10;99.90;;;;;;2585881;54;20049;31
2023/10/08 01:12:22;;;;;;;1.17;0.30;;;12.10;99.90;;;;;;2584957;54;20042;31
2023/10/08 01:15:16;;;;;;;0.60;0.20;;;12.10;99.90;;;;;;2603828;46;20108;31
2023/10/08 01:17:59;;;;;;;0.25;0.17;;;12.10;99.90;;;;;;2603698;47;20110;31
2023/10/08 01:20:56;;;;;;;0.80;0.30;;;12.10;99.90;;;;;;2585958;54;20792;31
2023/10/08 01:23:42;;;;;;;0.35;0.15;;;12.10;99.90;;;;;;2585729;54;20031;31
2023/10/08 01:26:23;;;;;;;1.90;0.40;;;12.10;99.90;;;;;;2584985;54;20031;31
2023/10/08 01:32:04;;;;;;;0.80;0.40;;;12.10;99.90;;;;;;2584649;54;20084;31
2023/10/08 01:34:45;;;;;;;1.45;0.30;;;12.10;99.90;;;;;;2584807;54;20089;31
2023/10/08 01:37:25;;;;;;;0.65;0.10;;;12.10;99.90;;;;;;2584376;54;20026;31
2023/10/08 01:40:06;;;;;;;1.65;0.20;;;12.10;99.90;;;;;;2591842;47;20977;31
2023/10/08 01:42:45;;;;;;;1.17;0.17;;;12.10;99.90;;;;;;2584612;54;20068;31
2023/10/08 01:45:24;;;;;;;2.20;0.77;;;12.10;99.90;;;;;;2584820;54;20038;31
2023/10/08 01:48:00;;;;;;;2.20;0.20;;;12.00;99.90;;;;;;2584800;54;20030;31
2023/10/08 01:50:39;;;;;;;1.63;0.50;;;12.10;99.90;;;;;;2586333;54;20260;31
2023/10/08 01:53:20;;;;;;;1.98;0.60;;;11.90;99.90;;;;;;2584275;54;20111;31
2023/10/08 01:56:04;;;;;;;1.00;0.30;;;11.80;99.90;;;;;;2602624;47;20030;31
2023/10/08 01:58:48;;;;;;;2.10;0.53;;;11.70;99.90;;;;;;2604294;47;20030;31
2023/10/08 02:01:36;;;;;;;1.00;0.20;;;11.70;99.90;;;;;;2585607;54;20262;31
2023/10/08 02:04:13;;;;;;;0.83;0.33;;;11.60;99.90;;;;;;2585666;54;20781;31
2023/10/08 02:06:52;;;;;;;1.35;0.40;;;11.60;99.90;;;;;;2586239;54;20870;31
2023/10/08 02:09:26;;;;;;;2.88;0.30;;;11.60;99.90;;;;;;2586299;54;20053;31
2023/10/08 02:12:14;;;;;;;1.77;0.20;;;11.50;99.90;;;;;;2585603;54;20941;31
2023/10/08 02:14:54;;;;;;;2.60;0.40;;;11.60;99.90;;;;;;2585637;54;20022;31
2023/10/08 02:17:30;;;;;;;3.45;0.30;;;11.50;99.90;;;;;;2587204;54;20104;31
2023/10/08 02:20:12;;;;;;;0.77;0.20;;;11.50;99.90;;;;;;2605173;46;20899;31
2023/10/08 02:22:49;;;;;;;1.00;0.20;;;11.50;99.90;;;;;;2585860;54;20033;31
2023/10/08 02:25:31;;;;;;;0.77;0.20;;;11.60;99.90;;;;;;2586258;54;20856;31
2023/10/08 02:28:12;;;;;;;0.13;0.10;;;11.50;99.90;;;;;;2586291;54;20873;31
2023/10/08 02:31:02;;;;;;;5.47;0.35;;;11.50;99.90;;;;;;2586036;54;20031;31
2023/10/08 02:33:58;;;;;;;1.95;0.15;;;11.60;99.90;;;;;;2604375;46;20759;31
2023/10/08 02:36:36;;;;;;;0.80;0.35;;;11.50;99.90;;;;;;2755153;31;21591;31
2023/10/08 02:41:59;;;;;;;1.35;0.40;;;11.40;99.90;;;;;;2586277;54;20040;31
2023/10/08 02:44:51;;;;;;;0.65;0.10;;;11.30;99.90;;;;;;2586188;54;20086;31
2023/10/08 02:47:31;;;;;;;1.70;0.27;;;11.30;99.90;;;;;;2604499;46;20026;31
2023/10/08 02:50:11;;;;;;;1.17;0.30;;;11.20;99.90;;;;;;2597400;46;20891;31
2023/10/08 02:52:51;;;;;;;4.50;0.50;;;11.20;99.90;;;;;;2585324;54;20770;31
2023/10/08 02:55:34;;;;;;;1.83;0.30;;;11.20;99.90;;;;;;2585116;54;20053;31
2023/10/08 02:58:18;;;;;;;0.85;0.20;;;11.20;99.90;;;;;;2702404;39;21540;31
2023/10/08 03:01:07;;;;;;;1.17;0.22;;;11.10;99.90;;;;;;2586235;54;20092;31
2023/10/08 03:03:50;;;;;;;1.33;0.30;;;11.10;99.90;;;;;;2586085;54;20027;31
2023/10/08 03:06:31;;;;;;;2.40;0.10;;;11.10;99.90;;;;;;2586135;54;20068;31
2023/10/08 03:09:13;;;;;;;1.13;0.20;;;11.10;99.90;;;;;;2604541;46;20034;31
2023/10/08 03:11:48;;;;;;;4.90;0.30;;;11.10;99.90;;;;;;2604336;46;20038;31
2023/10/08 03:14:41;;;;;;;6.63;0.70;;;11.10;99.90;;;;;;2604785;46;20049;31
2023/10/08 03:17:20;;;;;;;1.85;0.20;;;11.10;99.90;;;;;;2585504;54;20827;31
2023/10/08 03:20:29;;;;;;;2.90;0.55;;;11.10;99.90;;;;;;2586172;54;20873;31
2023/10/08 03:22:56;;;;;;;1.90;0.20;;;11.10;99.90;;;;;;2586419;54;21569;31
2023/10/08 03:25:41;;;;;;;1.48;0.40;;;11.10;99.90;;;;;;2586235;54;21620;31
2023/10/08 03:28:17;;;;;;;1.98;0.85;;;11.10;99.90;;;;;;2604264;46;20033;31
2023/10/08 03:31:02;;;;;;;1.55;0.20;;;11.10;99.90;;;;;;2684395;39;21520;31
2023/10/08 03:33:49;;;;;;;0.20;0.10;;;11.00;99.90;;;;;;2585727;54;20057;31
2023/10/08 03:36:34;;;;;;;0.95;0.30;;;11.00;99.90;;;;;;2683863;39;20483;31
2023/10/08 03:39:13;;;;;;;2.40;0.20;;;11.00;99.90;;;;;;2590326;46;20056;31
2023/10/08 03:42:07;;;;;;;0.35;0.20;;;11.00;99.90;;;;;;2586093;54;20875;31
2023/10/08 03:44:43;;;;;;;0.63;0.30;;;11.00;99.90;;;;;;2586072;54;20038;31
2023/10/08 03:47:26;;;;;;;0.93;0.30;;;11.00;99.90;;;;;;2586270;54;20037;31
2023/10/08 03:50:17;;;;;;;2.78;0.50;;;10.90;99.90;;;;;;2585825;54;21188;31
2023/10/08 03:55:40;;;;;;;1.92;0.43;;;10.90;99.90;;;;;;2585136;54;20038;31
2023/10/08 03:58:32;;;;;;;3.42;0.30;;;10.90;99.90;;;;;;2585966;54;20911;31
2023/10/08 04:01:17;;;;;;;3.60;0.55;;;10.90;99.90;;;;;;2591259;46;20774;31
2023/10/08 04:09:50;;;;;;;1.67;0.40;;;10.90;99.90;;;;;;2586085;54;20770;31
2023/10/08 04:12:27;;;;;;;1.03;0.30;;;10.80;99.90;;;;;;2683877;39;22427;31
2023/10/08 04:14:59;;;;;;;1.05;0.40;;;10.90;99.90;;;;;;2585815;54;20316;31
2023/10/08 04:17:43;;;;;;;0.90;0.40;;;10.80;99.90;;;;;;2585063;54;20160;31
2023/10/08 04:23:18;;;;;;;2.58;0.43;;;10.80;99.90;;;;;;2604317;46;20030;31
2023/10/08 04:25:54;;;;;;;1.00;0.40;;;10.80;99.90;;;;;;2586197;54;20759;31
2023/10/08 04:28:34;;;;;;;1.35;0.65;;;10.80;99.90;;;;;;2585824;54;20991;31
2023/10/08 04:31:24;;;;;;;2.75;0.75;;;10.80;99.90;;;;;;2585027;54;20090;31
2023/10/08 04:34:09;;;;;;;3.35;0.40;;;10.90;99.90;;;;;;2586219;54;20057;31
2023/10/08 04:36:45;;;;;;;5.70;0.60;;;10.90;99.90;;;;;;2585897;54;20034;31
2023/10/08 04:39:31;;;;;;;1.20;0.40;;;10.80;99.90;;;;;;2585833;54;20045;31
2023/10/08 04:42:12;;;;;;;2.47;0.47;;;10.80;99.90;;;;;;2586028;54;20936;31
2023/10/08 04:45:02;;;;;;;3.88;0.80;;;10.80;99.90;;;;;;2604422;46;20026;31
2023/10/08 04:47:43;;;;;;;2.03;0.52;;;10.80;99.90;;;;;;2585668;54;19935;31
2023/10/08 04:50:30;;;;;;;5.40;0.70;;;10.80;99.90;;;;;;2604154;46;20026;31
2023/10/08 04:53:10;;;;;;;5.38;0.50;;;10.80;99.90;;;;;;2585807;54;20033;31
2023/10/08 04:56:02;;;;;;;2.50;0.55;;;10.80;99.90;;;;;;2584817;54;19964;31
2023/10/08 04:58:41;;;;;;;5.25;1.10;;;10.80;99.90;;;;;;2585964;54;20034;31
2023/10/08 05:01:28;;;;;;;2.75;0.80;;;10.80;99.90;;;;;;2584909;54;20038;31
2023/10/08 05:04:23;;;;;;;3.50;0.83;;;10.80;99.90;;;;;;2585824;54;20087;31
2023/10/08 05:13:01;;;;;;;3.03;0.73;;;10.70;99.90;;;;;;2586079;54;20060;31
2023/10/08 05:16:03;;;;;;;2.22;1.20;;;10.70;99.90;;;;;;2585703;54;20895;31
2023/10/08 05:21:50;;;;;;;2.20;0.93;;;10.70;99.90;;;;;;2585846;54;20022;31
2023/10/08 05:24:27;;;;;;;5.97;2.42;;;10.70;99.90;;;;;;2585814;54;20030;31
2023/10/08 05:27:37;;;;;;;6.85;1.40;;;10.70;99.90;;;;;;2683600;39;22330;31
2023/10/08 05:30:28;;;;;;;4.17;1.93;;;10.70;99.90;;;;;;2585765;54;20028;31
2023/10/08 05:33:12;;;;;;;3.30;1.40;;;10.70;99.90;;;;;;2585687;54;20030;31
2023/10/08 05:35:54;;;;;;;4.25;1.73;;;10.70;99.90;;;;;;2585696;54;20105;31
2023/10/08 05:41:38;;;;;;;3.55;1.60;;;10.70;99.90;;;;;;2586039;54;20026;31
2023/10/08 05:47:38;;;;;;;9.45;2.22;;;10.80;99.90;;;;;;2586058;54;20035;31
2023/10/08 05:53:15;;;;;;;4.65;1.70;;;10.80;99.90;;;;;;2587437;46;20865;31
2023/10/08 05:56:01;;;;;;;3.97;2.25;;;10.80;99.90;;;;;;2586762;54;20946;31
2023/10/08 05:58:45;;;;;;;7.57;2.50;;;10.90;99.90;;;;;;2586573;54;20085;31
2023/10/08 06:01:37;;;;;;;7.10;1.90;;;10.90;99.90;;;;;;2586649;54;20883;31
2023/10/08 06:04:42;;;;;;;6.17;2.33;;;10.90;99.90;;;;;;2586390;54;20278;31
2023/10/08 06:07:33;;;;;;;5.50;2.70;;;10.90;99.90;;;;;;2585103;54;20023;31
2023/10/08 06:10:26;;;;;;;5.78;2.75;;;10.90;99.90;;;;;;2586049;54;20544;31
2023/10/08 06:13:09;;;;;;;5.20;2.90;;;10.90;99.90;;;;;;2604999;46;20027;31
2023/10/08 06:15:48;;;;;;;9.35;2.40;;;10.90;99.90;;;;;;2586457;54;20821;31
2023/10/08 06:21:18;;;;;;;4.35;2.42;;;11.00;99.90;;;;;;2586287;54;20528;31
2023/10/08 06:24:01;;;;;;;4.90;2.80;;;11.20;99.90;;;;;;2586326;54;20038;31
2023/10/08 06:26:38;;;;;;;5.75;3.00;;;11.20;99.90;;;;;;2585593;54;21102;31
2023/10/08 06:29:27;;;;;;;7.00;3.10;;;11.30;99.90;;;;;;2599264;46;20028;31
2023/10/08 06:32:05;;;;;;;7.10;3.72;;;11.30;99.90;;;;;;2598620;46;20172;31
2023/10/08 06:34:45;;;;;;;4.53;3.03;;;11.30;99.90;;;;;;2586255;54;20048;31
2023/10/08 06:37:27;;;;;;;6.32;3.38;;;11.40;99.90;;;;;;2586338;54;20774;31
2023/10/08 06:40:30;;;;;;;4.95;2.50;;;11.50;99.90;;;;;;2683627;39;22340;31
2023/10/08 06:43:11;;;;;;;9.53;2.63;;;11.50;99.90;;;;;;2586445;54;20033;31
2023/10/08 06:45:57;;;;;;;8.15;3.20;;;11.60;99.90;;;;;;2586305;54;20127;31
2023/10/08 06:48:36;;;;;;;8.75;2.50;;;11.80;99.90;;;;;;2604906;46;20026;31
2023/10/08 06:51:12;;;;;;;7.13;3.05;;;12.30;99.90;;;;;;2586159;54;20948;31
2023/10/08 06:54:00;;;;;;;4.10;2.08;;;12.60;99.90;;;;;;2586233;54;20745;31
2023/10/08 06:56:35;;;;;;;3.40;2.25;;;13.10;99.90;;;;;;2586337;54;20849;31
2023/10/08 06:59:13;;;;;;;3.30;1.80;;;13.70;99.90;;;;;;2604572;46;20537;31
2023/10/08 07:02:01;;;;;;;6.93;1.95;;;14.00;99.90;;;;;;2586304;54;20852;31
2023/10/08 07:04:33;;;;;;;7.57;1.90;;;14.30;99.90;;;;;;2585945;54;20038;31
2023/10/08 07:07:18;;;;;;;3.23;1.57;;;14.50;99.90;;;;;;2702193;39;20614;31
2023/10/08 07:10:04;;;;;;;3.75;1.80;;;14.70;99.90;;;;;;2585801;54;20301;31
2023/10/08 07:12:45;;;;;;;2.97;1.30;;;14.90;99.90;;;;;;2605267;46;20038;31
2023/10/08 07:15:29;;;;;;;3.28;1.50;;;15.20;99.90;;;;;;2604635;46;21840;31
2023/10/08 07:18:12;;;;;;;4.07;1.30;;;15.50;99.90;;;;;;2586438;54;20871;31
2023/10/08 07:20:53;;;;;;;3.45;1.10;;;15.80;99.90;;;;;;2604613;46;21538;31
2023/10/08 07:23:34;;;;;;;4.60;1.30;;;15.90;99.90;;;;;;2586197;54;20009;31
2023/10/08 07:26:17;;;;;;;3.45;1.45;;;16.10;99.90;;;;;;2586117;54;20828;31
2023/10/08 07:28:55;;;;;;;3.03;1.37;;;16.20;99.90;;;;;;2604272;46;20081;31
2023/10/08 07:31:34;;;;;;;2.92;1.17;;;16.60;99.90;;;;;;2586125;54;20056;31
2023/10/08 07:34:18;;;;;;;5.75;1.42;;;16.90;99.90;;;;;;2683833;39;21435;31
2023/10/08 07:36:51;;;;;;;3.20;1.30;;;17.20;99.90;;;;;;2586128;54;20898;31
2023/10/08 07:39:43;;;;;;;3.00;1.10;;;17.50;99.90;;;;;;2586080;54;20329;31
2023/10/08 07:42:22;;;;;;;5.63;0.90;;;17.40;99.90;;;;;;2585799;54;20151;31
2023/10/08 07:45:04;;;;;;;3.23;1.20;;;16.80;99.90;;;;;;2586052;54;20133;31
2023/10/08 07:47:43;;;;;;;2.93;0.80;;;16.40;99.90;;;;;;2586003;54;20226;31
2023/10/08 07:50:19;;;;;;;1.77;0.75;;;15.90;99.90;;;;;;2604581;46;20061;31
2023/10/08 07:52:55;;;;;;;3.63;0.80;;;15.60;99.90;;;;;;2586061;54;20096;31
2023/10/08 07:55:34;;;;;;;3.00;0.90;;;15.60;99.90;;;;;;2604386;46;20085;31
2023/10/08 07:58:21;;;;;;;2.40;0.50;;;15.80;99.90;;;;;;2604607;46;20033;31
2023/10/08 08:01:00;;;;;;;1.35;0.20;;;16.00;99.90;;;;;;2604788;46;20054;31
2023/10/08 08:03:45;;;;;;;3.00;0.60;;;16.20;99.90;;;;;;2586307;54;20033;31
2023/10/08 08:06:27;;;;;;;2.20;0.40;;;16.30;99.90;;;;;;2586075;54;21217;31
2023/10/08 08:09:04;;;;;;;1.20;0.40;;;16.50;99.90;;;;;;2586049;54;20746;31
2023/10/08 08:11:40;;;;;;;2.28;0.63;;;16.60;99.90;;;;;;2586133;54;20038;31
2023/10/08 08:14:24;;;;;;;1.27;0.40;;;16.70;99.90;;;;;;2586166;54;20877;31
2023/10/08 08:17:13;;;;;;;3.17;0.30;;;16.90;99.90;;;;;;2586004;54;20023;31
2023/10/08 08:19:50;;;;;;;2.33;0.70;;;17.10;99.90;;;;;;2604534;46;20053;31
2023/10/08 08:22:40;;;;;;;4.30;0.65;;;17.40;99.90;;;;;;2682723;39;20476;31
2023/10/08 08:25:33;;;;;;;1.40;0.30;;;17.50;99.90;;;;;;2586070;54;20860;31
2023/10/08 08:28:16;;;;;;;2.00;0.50;;;17.60;99.90;;;;;;2586269;54;20885;31
2023/10/08 08:30:57;;;;;;;1.98;0.30;;;17.70;99.90;;;;;;2604632;46;20049;31
2023/10/08 08:33:52;;;;;;;3.30;0.80;;;17.60;99.90;;;;;;2599215;46;20031;31
2023/10/08 08:36:31;;;;;;;2.35;0.40;;;17.80;99.90;;;;;;2604693;46;20068;31
2023/10/08 08:39:27;;;;;;;1.38;0.50;;;18.00;99.90;;;;;;2586098;54;20042;31
2023/10/08 08:42:14;;;;;;;1.60;0.40;;;18.00;99.90;;;;;;2604455;46;20865;31
2023/10/08 08:44:50;;;;;;;1.83;0.47;;;18.10;99.90;;;;;;2585934;54;20867;31
2023/10/08 08:47:34;;;;;;;0.90;0.30;;;18.10;99.90;;;;;;2586122;54;20037;31
2023/10/08 08:50:17;;;;;;;1.40;0.25;;;18.00;99.90;;;;;;2586068;54;20125;31
2023/10/08 08:52:58;;;;;;;1.30;0.45;;;18.00;99.90;;;;;;2586136;54;20748;31
2023/10/08 08:55:35;;;;;;;1.60;0.40;;;17.90;99.90;;;;;;2586126;54;20918;31
2023/10/08 08:58:17;;;;;;;1.35;0.30;;;18.10;99.90;;;;;;2584917;54;20078;31
2023/10/08 09:00:55;;;;;;;0.75;0.20;;;18.00;99.90;;;;;;2604342;46;20883;31
2023/10/08 09:03:40;;;;;;;1.00;0.25;;;18.00;99.90;;;;;;2604375;46;20913;31
2023/10/08 09:06:16;;;;;;;0.40;0.13;;;18.10;99.90;;;;;;2585876;54;20914;31
2023/10/08 09:09:13;;;;;;;0.60;0.20;;;18.00;99.90;;;;;;2604151;46;20033;31
2023/10/08 09:11:51;;;;;;;1.45;0.35;;;18.10;99.90;;;;;;2585785;54;20064;31
2023/10/08 09:14:26;;;;;;;0.65;0.25;;;18.20;99.90;;;;;;2604474;46;20846;31
2023/10/08 09:17:07;;;;;;;1.07;0.23;;;18.20;99.00;;;;;;2585651;54;20969;31
2023/10/08 09:19:54;;;;;;;0.82;0.20;;;18.10;99.10;;;;;;2604386;46;20917;31
2023/10/08 09:22:44;;;;;;;1.00;0.20;;;18.00;98.90;;;;;;2585867;54;21017;31
2023/10/08 09:25:32;;;;;;;3.67;0.33;;;18.00;99.30;;;;;;2586039;54;20921;31
2023/10/08 09:28:12;;;;;;;1.65;0.15;;;17.90;97.80;;;;;;2585730;54;20913;31
2023/10/08 09:33:22;;;;;;;1.35;0.32;;;18.00;97.60;;;;;;2585844;54;20023;31
2023/10/08 09:36:15;;;;;;;0.38;0.10;;;17.90;96.70;;;;;;2592324;47;20031;31
2023/10/08 09:38:56;;;;;;;0.73;0.20;;;18.00;96.30;;;;;;2585663;54;20876;31
2023/10/08 09:41:31;;;;;;;1.15;0.20;;;17.80;94.00;;;;;;2585831;54;20737;31
2023/10/08 09:44:10;;;;;;;0.55;0.20;;;17.70;95.50;;;;;;2585931;54;20776;31
2023/10/08 09:46:58;;;;;;;1.02;0.25;;;17.70;95.00;;;;;;2585511;54;20034;31
2023/10/08 09:49:39;;;;;;;2.78;0.20;;;17.80;96.20;;;;;;2585585;54;20881;31
2023/10/08 09:52:24;;;;;;;0.70;0.20;;;17.90;96.30;;;;;;2603697;47;20023;31
2023/10/08 09:55:07;;;;;;;1.10;0.20;;;18.00;95.20;;;;;;2585638;54;21176;31
2023/10/08 09:57:44;;;;;;;0.50;0.20;;;17.90;95.20;;;;;;2585767;54;20084;31
2023/10/08 10:00:29;;;;;;;0.60;0.20;;;18.00;95.20;;;;;;2683446;39;21342;31
2023/10/08 10:03:07;;;;;;;0.52;0.20;;;17.90;95.10;;;;;;2585572;54;20089;31
2023/10/08 10:05:44;;;;;;;0.97;0.10;;;18.00;94.90;;;;;;2585785;54;20049;31
2023/10/08 10:08:25;;;;;;;1.00;0.20;;;17.90;95.00;;;;;;2585635;54;20758;31
2023/10/08 10:11:02;;;;;;;1.02;0.30;;;17.80;94.10;;;;;;2584859;54;20046;31
2023/10/08 10:13:38;;;;;;;0.80;0.30;;;18.10;93.70;;;;;;2585616;54;20845;31
2023/10/08 10:16:21;;;;;;;0.70;0.30;;;18.00;93.90;;;;;;2604006;47;20038;31
2023/10/08 10:19:02;;;;;;;0.35;0.10;;;17.90;95.30;;;;;;2600806;47;20977;31
2023/10/08 10:21:42;;;;;;;0.95;0.20;;;17.90;95.40;;;;;;2600705;47;20703;31
2023/10/08 10:24:41;;;;;;;0.87;0.10;;;17.80;96.20;;;;;;2585775;54;20892;31
2023/10/08 10:29:52;;;;;;;1.15;0.20;;;17.80;94.80;;;;;;2586343;54;20949;31
2023/10/08 10:32:31;;;;;;;2.25;0.20;;;17.80;94.90;;;;;;2605182;46;20827;31
2023/10/08 10:35:11;;;;;;;1.93;0.20;;;17.70;93.20;;;;;;2586681;54;20030;31
2023/10/08 10:37:51;;;;;;;1.20;0.20;;;17.70;93.30;;;;;;2584799;54;20034;31
2023/10/08 10:40:42;;;;;;;0.50;0.10;;;17.70;94.00;;;;;;2586406;54;20880;31
2023/10/08 10:43:20;;;;;;;;;;;17.60;94.00;;;;;;2587392;54;20949;31
2023/10/08 10:46:05;;;;;;;1.27;0.20;;;17.60;92.80;;;;;;2586602;54;19939;31
2023/10/08 10:48:44;;;;;;;0.60;0.20;;;17.60;92.80;;;;;;2755022;31;21577;31
2023/10/08 10:51:33;;;;;;;0.30;0.10;;;17.50;94.50;;;;;;2586057;54;20060;31
2023/10/08 10:54:20;;;;;;;0.30;0.20;;;17.40;94.90;;;;;;2604634;46;20537;31
2023/10/08 10:57:09;;;;;;;0.70;0.20;;;17.30;94.10;;;;;;2586417;54;20120;31
2023/10/08 10:59:53;;;;;;;0.63;0.20;;;17.20;94.30;;;;;;2604695;46;20153;31
2023/10/08 11:02:30;;;;;;;0.65;0.17;;;17.00;93.90;;;;;;2586062;54;20034;31
2023/10/08 11:05:20;;;;;;;0.63;0.10;;;16.90;93.30;;;;;;2586413;54;20867;31
2023/10/08 11:08:08;;;;;;;0.25;0.10;;;16.80;94.00;;;;;;2586200;54;20232;31
2023/10/08 11:10:49;;;;;;;1.00;0.30;;;16.80;93.30;;;;;;2586250;54;20940;31
2023/10/08 11:13:37;;;;;;;1.20;0.25;;;16.70;92.90;;;;;;2586474;54;20999;31
2023/10/08 11:16:14;;;;;;;0.70;0.35;;;16.70;94.70;;;;;;2585948;54;20077;31
2023/10/08 11:18:57;;;;;;;3.90;0.10;;;16.70;93.60;;;;;;2585846;54;20140;31
2023/10/08 11:21:42;;;;;;;1.50;0.30;;;16.60;93.30;;;;;;2586471;54;21053;31
2023/10/08 11:24:37;;;;;;;0.40;0.10;;;16.50;93.00;;;;;;2702184;39;20507;31
2023/10/08 11:27:28;;;;;;;1.08;0.32;;;16.40;92.50;;;;;;2586191;54;20132;31
2023/10/08 11:30:10;;;;;;;1.83;0.30;;;16.40;92.50;;;;;;2586117;54;20890;31
2023/10/08 11:32:48;;;;;;;0.90;0.10;;;16.30;92.70;;;;;;2585942;54;20026;31
2023/10/08 11:35:33;;;;;;;0.57;0.10;;;16.20;93.80;;;;;;2590803;46;20853;31
2023/10/08 11:38:22;;;;;;;1.83;0.20;;;16.30;93.90;;;;;;2585800;54;20894;31
2023/10/08 11:41:20;;;;;;;1.00;0.10;;;16.20;94.20;;;;;;2586438;54;21558;31
2023/10/08 11:44:15;;;;;;;0.83;0.07;;;16.10;93.40;;;;;;2585842;54;20037;31
2023/10/08 11:47:04;;;;;;;1.90;0.20;;;15.90;94.00;;;;;;2586093;54;20992;31
2023/10/08 11:49:47;;;;;;;1.20;0.20;;;15.70;94.40;;;;;;2604733;46;21229;31
2023/10/08 11:52:25;;;;;;;2.60;0.70;;;15.70;94.60;;;;;;2585920;54;20026;31
2023/10/08 11:55:07;;;;;;;3.50;0.30;;;15.60;94.80;;;;;;2585330;54;20929;31
2023/10/08 12:01:03;;;;;;;0.55;0.20;;;15.60;93.20;;;;;;2586302;54;20801;31
2023/10/08 12:06:52;;;;;;;1.20;0.20;;;15.50;93.40;;;;;;2585611;54;20030;31
2023/10/08 12:09:50;;;;;;;0.73;0.20;;;15.40;92.30;;;;;;2604042;46;21710;31
2023/10/08 12:12:31;;;;;;;1.13;0.33;;;15.30;92.60;;;;;;2604277;46;20152;31
2023/10/08 12:15:20;;;;;;;1.15;0.35;;;15.20;94.40;;;;;;2586094;54;20086;31
2023/10/08 12:21:22;;;;;;;1.45;0.20;;;15.00;95.70;;;;;;2683860;39;20931;31
2023/10/08 12:24:05;;;;;;;0.80;0.20;;;15.00;94.80;;;;;;2586189;54;20035;31
2023/10/08 12:26:45;;;;;;;0.55;0.20;;;15.00;94.70;;;;;;2586148;54;21332;31
2023/10/08 12:29:24;;;;;;;0.85;0.30;;;15.00;95.20;;;;;;2604464;46;20073;31
2023/10/08 12:31:59;;;;;;;0.95;0.10;;;15.00;94.90;;;;;;2603884;46;20030;31
2023/10/08 12:34:38;;;;;;;3.30;0.28;;;15.00;94.50;;;;;;2585856;54;20031;31
2023/10/08 12:37:22;;;;;;;0.40;0.10;;;15.00;94.60;;;;;;2586106;54;20902;31
2023/10/08 12:40:22;;;;;;;0.40;0.10;;;15.00;95.50;;;;;;2586281;54;21318;31
2023/10/08 12:42:58;;;;;;;0.73;0.10;;;14.90;93.70;;;;;;2604633;46;20027;31
2023/10/08 12:45:37;;;;;;;0.60;0.20;;;14.90;93.10;;;;;;2585110;54;20812;31
2023/10/08 12:48:17;;;;;;;0.90;0.20;;;14.80;93.40;;;;;;2604532;46;20861;31
2023/10/08 12:51:05;;;;;;;0.75;0.20;;;14.80;93.20;;;;;;2585919;54;20144;31
2023/10/08 12:53:50;;;;;;;0.20;0.10;;;14.70;93.10;;;;;;2585972;54;20033;31
2023/10/08 12:56:44;;;;;;;0.70;0.15;;;14.60;92.90;;;;;;2603936;46;21358;31
2023/10/08 12:59:30;;;;;;;0.50;0.10;;;14.60;93.60;;;;;;2585867;54;20049;31
2023/10/08 13:02:16;;;;;;;1.00;0.20;;;14.50;93.50;;;;;;2604369;46;20884;31
2023/10/08 13:05:26;;;;;;;0.50;0.20;;;14.60;93.50;;;;;;2585725;54;20922;31
2023/10/08 13:08:19;;;;;;;0.47;0.10;;;14.50;93.80;;;;;;2603659;46;21081;31
2023/10/08 13:11:04;;;;;;;0.60;0.10;;;14.50;95.40;;;;;;2604392;46;20065;31
2023/10/08 13:13:44;;;;;;;1.67;0.20;;;14.50;93.40;;;;;;2585559;54;20258;31
2023/10/08 13:16:21;;;;;;;0.50;0.10;;;14.40;94.10;;;;;;2585839;54;20037;31
2023/10/08 13:19:02;;;;;;;;;;;14.40;92.90;;;;;;2585821;54;21170;31
2023/10/08 13:21:44;;;;;;;0.20;0.10;;;14.30;93.10;;;;;;2585558;54;20746;31
2023/10/08 13:24:30;;;;;;;3.25;0.75;;;14.20;93.70;;;;;;2585867;54;20030;31
2023/10/08 13:27:16;;;;;;;1.55;0.20;;;14.20;95.30;;;;;;2585789;54;20132;31
2023/10/08 13:29:53;;;;;;;0.50;0.10;;;14.20;94.60;;;;;;2585891;54;20894;31
2023/10/08 13:32:36;;;;;;;1.95;0.40;;;14.10;93.90;;;;;;2604139;47;20023;31
2023/10/08 13:35:19;;;;;;;1.03;0.20;;;14.20;96.00;;;;;;2585046;54;20030;31
2023/10/08 13:38:02;;;;;;;0.37;0.10;;;14.20;94.70;;;;;;2585780;54;20246;31
2023/10/08 13:40:43;;;;;;;0.55;0.20;;;14.20;95.40;;;;;;2604144;47;20030;31
2023/10/08 13:43:33;;;;;;;0.90;0.22;;;14.20;95.20;;;;;;2585899;54;20023;31
2023/10/08 13:46:13;;;;;;;1.80;0.30;;;14.20;94.10;;;;;;2585705;54;20031;31
2023/10/08 13:48:51;;;;;;;0.50;0.15;;;14.10;94.90;;;;;;2604317;47;20983;31
2023/10/08 13:51:28;;;;;;;;;;;14.10;94.70;;;;;;2585919;54;19942;31
2023/10/08 13:54:09;;;;;;;0.40;0.10;;;14.10;96.20;;;;;;2585944;54;20721;31
2023/10/08 13:56:51;;;;;;;0.10;0.10;;;14.10;94.90;;;;;;2585703;54;20042;31
2023/10/08 13:59:47;;;;;;;0.80;0.20;;;14.10;95.40;;;;;;2585360;54;20095;31
2023/10/08 14:02:30;;;;;;;1.60;0.20;;;14.10;95.50;;;;;;2586325;54;20826;31
2023/10/08 14:05:10;;;;;;;0.93;0.20;;;14.10;95.30;;;;;;2586565;54;20798;31
2023/10/08 14:10:29;;;;;;;1.15;0.20;;;14.10;94.50;;;;;;2604396;46;20035;31
2023/10/08 14:13:07;;;;;;;0.57;0.20;;;14.00;95.00;;;;;;2604830;46;20920;31
2023/10/08 14:18:28;;;;;;;1.65;0.35;;;13.90;95.10;;;;;;2586750;54;20869;31
2023/10/08 14:21:09;;;;;;;1.55;0.28;;;13.90;94.20;;;;;;2586495;54;20922;31
2023/10/08 14:23:52;;;;;;;0.67;0.47;;;13.90;95.10;;;;;;2684244;39;22342;31
2023/10/08 14:26:35;;;;;;;1.02;0.20;;;13.80;95.40;;;;;;2604585;46;20974;31
2023/10/08 14:29:15;;;;;;;1.30;0.20;;;13.80;95.60;;;;;;2598318;46;20813;31
2023/10/08 14:31:52;;;;;;;0.30;0.10;;;13.80;95.50;;;;;;2585273;54;20538;31
2023/10/08 14:43:11;;;;;;;0.55;0.10;;;13.60;95.80;;;;;;2604365;46;20991;31
2023/10/08 14:45:47;;;;;;;0.70;0.17;;;13.50;96.00;;;;;;2585471;54;20033;31
2023/10/08 14:48:29;;;;;;;0.38;0.10;;;13.40;95.90;;;;;;2604912;46;20840;31
2023/10/08 14:51:19;;;;;;;0.65;0.40;;;13.40;97.10;;;;;;2585109;54;20041;31
2023/10/08 14:53:57;;;;;;;1.15;0.30;;;13.30;96.70;;;;;;2585802;54;20018;31
2023/10/08 14:56:40;;;;;;;0.85;0.30;;;13.30;96.30;;;;;;2586284;54;20104;31
2023/10/08 14:59:28;;;;;;;0.77;0.30;;;13.30;96.40;;;;;;2586478;54;20739;31
2023/10/08 15:02:11;;;;;;;0.67;0.30;;;13.30;97.10;;;;;;2585970;54;20882;31
2023/10/08 15:04:55;;;;;;;0.55;0.20;;;13.30;96.80;;;;;;2586093;54;20034;31
2023/10/08 15:07:32;;;;;;;1.58;0.57;;;13.30;96.70;;;;;;2586337;54;20876;31
2023/10/08 15:10:25;;;;;;;1.95;0.40;;;13.30;96.20;;;;;;2604140;46;21603;31
2023/10/08 15:13:06;;;;;;;0.77;0.20;;;13.20;96.00;;;;;;2585902;54;20879;31
2023/10/08 15:15:47;;;;;;;0.80;0.30;;;13.20;96.00;;;;;;2585812;54;19969;31
2023/10/08 15:18:23;;;;;;;0.80;0.20;;;13.10;97.00;;;;;;2585806;54;20061;31
2023/10/08 15:21:04;;;;;;;0.87;0.20;;;13.10;96.70;;;;;;2586415;54;20242;31
2023/10/08 15:23:52;;;;;;;0.47;0.20;;;13.10;98.40;;;;;;2604982;46;20030;31
2023/10/08 15:26:33;;;;;;;0.52;0.25;;;13.10;97.50;;;;;;2586025;54;20023;31
2023/10/08 15:29:15;;;;;;;0.55;0.20;;;13.10;97.70;;;;;;2683996;39;21420;31
2023/10/08 15:31:52;;;;;;;0.17;0.07;;;13.00;97.80;;;;;;2585919;54;20037;31
2023/10/08 15:34:56;;;;;;;0.70;0.20;;;13.00;98.50;;;;;;2585862;54;20861;31
2023/10/08 15:37:40;;;;;;;0.40;0.15;;;13.00;98.00;;;;;;2586001;54;20353;31
2023/10/08 15:40:22;;;;;;;2.00;0.13;;;13.00;98.60;;;;;;2586190;54;20127;31
2023/10/08 15:43:15;;;;;;;1.23;0.30;;;13.00;98.90;;;;;;2604474;46;21688;31
2023/10/08 15:46:00;;;;;;;1.40;0.30;;;12.90;99.20;;;;;;2586256;54;20739;31